Observations

BIA Manual Entry


Date Temp Humidity Rainfall Dew Point Wind Direction Wind Speed Wind Pressure Condition Visibility
2025-05-01 17:01:50 31 64 23 320 11.4 1007 Thunderstorm 15 km
2025-05-01 16:00:45 32 61 23 310 13.3 1007 Thunderstorm 15 km
2025-05-01 15:00:46 32 58 23 330 15.2 1007 Partly Cloudy (Day) 20 km
2025-05-01 13:59:53 31 62 23 330 15.2 1008 Partly Cloudy (Day) 20 km
2025-05-01 13:00:37 32 65 24 320 13.3 1009 Partly Cloudy (Day) 20KM
2025-05-01 12:01:43 32 64 24 330 13.3 1010 Partly Cloudy (Day) 20KM
2025-05-01 11:04:50 32 62 24 200 7.6 1010 Partly Cloudy (Day) 20KM
2025-05-01 09:59:55 31 64 0.00 23 210 7.6 1011 Partly Cloudy (Day) 10 km
2025-05-01 09:02:05 30 75 24 140 5.7 1011 Partly Cloudy (Day) 10KM
2025-05-01 07:57:27 27 84 0.0 24 210 1.9 1011 Partly Cloudy (Day) 20 KM
2025-05-01 06:57:28 26 91 0.0 24 200 3.8 1010 Partly Cloudy (Day) 10 KM
2025-05-01 06:00:00 25 93 0.0 24 280 1.9 1009 Partly Cloudy (Night) 10 KM
2025-05-01 04:59:55 26 91 0.0 24 250 3.8 1009 Partly Cloudy (Night) 10 KM
2025-05-01 04:00:14 26 91 0.0 24 200 7.6 1008 Partly Cloudy (Night) 10 KM
2025-05-01 03:00:36 26 88 0.0 24 170 7.6 1009 Partly Cloudy (Night) 10 KM
2025-05-01 01:59:11 26 92 0.00 25 200 5.7 1010 Partly Cloudy (Night) 10KM
2025-05-01 00:58:12 27 89 0.00 25 190 5.7 1010 Partly Cloudy (Night) 10KM
2025-05-01 00:58:11 27 89 0.00 25 190 5.7 1010 Partly Cloudy (Night) 10KM
2025-04-30 23:57:29 27 89 0.00 25 170 1.9 1011 Partly Cloudy (Night) 10KM
2025-04-30 22:59:08 27 88 0.00 25 220 3.8 1011 Partly Cloudy (Night) 10KM
2025-04-30 21:58:42 27 84 0.00 25 000 0.0 1011 Partly Cloudy (Night) 10KM
2025-04-30 21:09:07 28 81 24 010 3.8 1010 Showers 10KM
2025-04-30 20:05:23 28 77 24 340 5.7 1009 Showers 10KM
2025-04-30 19:02:52 29 76 24 360 5.7 1008 Partly Cloudy (Night) 10KM
2025-04-30 18:03:37 29 71 23 300 7.6 1008 Partly Cloudy (Day) 10KM